createdAt,value
2019-02-28T00:02:09.127Z,13.93
2019-02-28T00:04:38.215Z,12.73
2019-02-28T00:07:06.878Z,12.50
2019-02-28T00:09:35.916Z,13.00
2019-02-28T00:12:05.351Z,12.73
2019-02-28T00:14:34.069Z,12.27
2019-02-28T00:17:03.239Z,12.10
2019-02-28T00:19:31.869Z,11.77
2019-02-28T00:22:00.919Z,11.50
2019-02-28T00:24:30.112Z,11.30
2019-02-28T00:26:59.526Z,12.00
2019-02-28T00:29:33.433Z,11.40
2019-02-28T00:31:59.021Z,13.40
2019-02-28T00:34:27.846Z,11.90
2019-02-28T00:36:56.554Z,12.47
2019-02-28T00:39:25.420Z,11.60
2019-02-28T00:41:54.145Z,11.90
2019-02-28T00:44:22.919Z,11.43
2019-02-28T00:46:51.462Z,11.80
2019-02-28T00:49:20.409Z,11.30
2019-02-28T00:51:49.157Z,11.97
2019-02-28T00:54:17.828Z,11.30
2019-02-28T00:56:51.550Z,11.60
2019-02-28T00:59:16.781Z,12.30
2019-02-28T01:01:46.054Z,12.30
2019-02-28T01:04:15.872Z,11.67
2019-02-28T01:06:44.476Z,11.27
2019-02-28T01:09:13.238Z,10.37
2019-02-28T01:11:44.943Z,11.67
2019-02-28T01:14:12.426Z,10.93
2019-02-28T01:16:41.462Z,10.90
2019-02-28T01:19:10.336Z,10.50
2019-02-28T01:21:39.425Z,11.57
2019-02-28T01:24:08.140Z,11.60
2019-02-28T01:26:36.839Z,10.73
2019-02-28T01:29:05.918Z,11.87
2019-02-28T01:31:34.463Z,11.30
2019-02-28T01:34:03.279Z,11.77
2019-02-28T01:36:31.870Z,11.20
2019-02-28T01:39:00.412Z,11.43
2019-02-28T01:41:29.222Z,10.87
2019-02-28T01:43:57.800Z,11.33
2019-02-28T01:46:26.500Z,11.60
2019-02-28T01:48:55.258Z,12.13
2019-02-28T01:51:24.057Z,10.90
2019-02-28T01:53:53.594Z,11.80
2019-02-28T01:56:23.435Z,10.80
2019-02-28T01:58:52.002Z,10.83
2019-02-28T02:01:20.842Z,10.67
2019-02-28T02:03:49.382Z,11.20
2019-02-28T02:06:17.968Z,10.10
2019-02-28T02:08:46.782Z,11.00
2019-02-28T02:11:15.472Z,10.13
2019-02-28T02:13:44.144Z,10.40
2019-02-28T02:16:12.798Z,11.43
2019-02-28T02:18:43.334Z,10.93
2019-02-28T02:21:12.086Z,10.90
2019-02-28T02:23:41.056Z,10.80
2019-02-28T02:26:11.281Z,11.07
2019-02-28T02:28:40.337Z,11.03
2019-02-28T02:31:09.264Z,11.57
2019-02-28T02:33:37.878Z,11.03
2019-02-28T02:36:06.652Z,10.40
2019-02-28T02:38:40.147Z,11.23
2019-02-28T02:41:05.847Z,11.00
2019-02-28T02:43:34.692Z,10.87
2019-02-28T02:46:03.447Z,11.13
2019-02-28T02:48:32.210Z,11.37
2019-02-28T02:51:00.877Z,11.80
2019-02-28T02:53:29.577Z,11.00
2019-02-28T02:56:03.609Z,10.73
2019-02-28T02:58:28.992Z,10.27
2019-02-28T03:00:57.792Z,10.70
2019-02-28T03:03:26.568Z,10.93
2019-02-28T03:05:55.362Z,10.93
2019-02-28T03:08:24.112Z,11.60
2019-02-28T03:10:53.293Z,11.20
2019-02-28T03:13:22.014Z,11.43
2019-02-28T03:15:50.725Z,11.07
2019-02-28T03:18:20.408Z,11.47
2019-02-28T03:20:49.474Z,11.50
2019-02-28T03:23:18.191Z,11.70
2019-02-28T03:25:46.864Z,11.03
2019-02-28T03:28:15.770Z,12.20
2019-02-28T03:30:44.460Z,11.67
2019-02-28T03:33:23.419Z,11.33
2019-02-28T03:35:44.334Z,10.73
2019-02-28T03:38:13.668Z,10.97
2019-02-28T03:40:42.444Z,10.80
2019-02-28T03:43:11.103Z,11.13
2019-02-28T03:45:39.885Z,10.63
2019-02-28T03:48:08.700Z,10.23
2019-02-28T03:50:37.658Z,9.57
2019-02-28T03:53:06.271Z,10.23
2019-02-28T03:55:40.327Z,9.57
2019-02-28T03:58:05.939Z,8.67
2019-02-28T04:00:34.784Z,9.20
2019-02-28T04:03:03.830Z,8.83
2019-02-28T04:05:32.608Z,9.00
2019-02-28T04:08:01.497Z,8.97
2019-02-28T04:10:30.521Z,9.43
2019-02-28T04:12:59.186Z,8.57
2019-02-28T04:15:28.130Z,8.03
2019-02-28T04:17:56.819Z,8.00
2019-02-28T04:20:25.540Z,8.30
2019-02-28T04:22:58.358Z,8.07
2019-02-28T04:25:24.897Z,8.33
2019-02-28T04:27:53.603Z,8.83
2019-02-28T04:30:22.546Z,8.87
2019-02-28T04:32:51.298Z,8.80
2019-02-28T04:35:24.004Z,8.27
2019-02-28T04:37:50.726Z,8.37
2019-02-28T04:40:19.383Z,8.03
2019-02-28T04:42:48.167Z,8.07
2019-02-28T04:45:16.831Z,8.60
2019-02-28T04:47:45.580Z,8.60
2019-02-28T04:50:14.367Z,8.90
2019-02-28T04:52:47.934Z,8.70
2019-02-28T04:55:13.740Z,8.63
2019-02-28T04:57:42.527Z,8.77
2019-02-28T05:00:11.610Z,9.03
2019-02-28T05:02:40.314Z,8.40
2019-02-28T05:05:12.108Z,7.77
2019-02-28T05:07:39.637Z,8.00
2019-02-28T05:10:08.357Z,7.97
2019-02-28T05:12:39.727Z,8.33
2019-02-28T05:15:08.434Z,8.57
2019-02-28T05:17:37.130Z,8.43
2019-02-28T05:20:07.413Z,8.33
2019-02-28T05:22:36.311Z,8.30
2019-02-28T05:25:05.284Z,8.07
2019-02-28T05:27:35.436Z,8.43
2019-02-28T05:30:04.858Z,7.90
2019-02-28T05:32:35.582Z,8.97
2019-02-28T05:35:04.260Z,8.50
2019-02-28T05:37:33.359Z,8.93
2019-02-28T05:40:05.380Z,8.77
2019-02-28T05:42:33.047Z,8.63
2019-02-28T05:45:01.817Z,7.87
2019-02-28T05:47:32.295Z,8.23
2019-02-28T05:50:00.985Z,7.90
2019-02-28T05:52:30.476Z,7.73
2019-02-28T05:55:00.323Z,7.63
2019-02-28T05:57:29.271Z,8.13
2019-02-28T06:00:01.315Z,8.30
2019-02-28T06:02:28.493Z,7.80
2019-02-28T06:04:57.107Z,8.43
2019-02-28T06:07:28.746Z,8.57
2019-02-28T06:09:56.403Z,8.17
2019-02-28T06:12:25.166Z,9.17
2019-02-28T06:14:53.902Z,8.10
2019-02-28T06:17:22.869Z,8.87
2019-02-28T06:19:51.720Z,8.53
2019-02-28T06:22:20.427Z,8.67
2019-02-28T06:24:49.125Z,8.43
2019-02-28T06:27:18.047Z,8.27
2019-02-28T06:29:46.855Z,8.60
2019-02-28T06:32:15.572Z,7.93
2019-02-28T06:34:44.425Z,7.87
2019-02-28T06:37:13.149Z,8.00
2019-02-28T06:39:42.011Z,8.13
2019-02-28T06:42:11.823Z,7.97
2019-02-28T06:44:41.568Z,8.20
2019-02-28T06:47:11.283Z,8.63
2019-02-28T06:49:41.820Z,7.87
2019-02-28T06:52:10.775Z,8.20
2019-02-28T06:54:40.114Z,8.50
2019-02-28T06:57:09.815Z,7.43
2019-02-28T06:59:39.124Z,7.90
2019-02-28T07:02:09.003Z,7.60
2019-02-28T07:04:38.055Z,7.60
2019-02-28T07:07:07.404Z,7.30
2019-02-28T07:09:37.489Z,7.37
2019-02-28T07:12:06.747Z,7.73
2019-02-28T07:14:35.503Z,8.30
2019-02-28T07:17:04.343Z,7.53
2019-02-28T07:19:33.211Z,7.73
2019-02-28T07:22:01.875Z,7.80
2019-02-28T07:24:30.853Z,7.37
2019-02-28T07:26:59.582Z,7.10
2019-02-28T07:29:28.430Z,6.77
2019-02-28T07:32:01.317Z,7.20
2019-02-28T07:34:27.898Z,7.30
2019-02-28T07:36:56.745Z,7.70
2019-02-28T07:39:25.701Z,7.43
2019-02-28T07:41:54.430Z,7.30
2019-02-28T07:44:23.233Z,7.87
2019-02-28T07:46:52.143Z,7.50
2019-02-28T07:49:21.075Z,7.13
2019-02-28T07:51:49.717Z,7.37
2019-02-28T07:54:20.378Z,6.43
2019-02-28T07:56:49.049Z,6.50
2019-02-28T07:59:17.989Z,6.10
2019-02-28T08:01:46.652Z,5.93
2019-02-28T08:04:18.150Z,6.30
2019-02-28T08:06:45.686Z,6.27
2019-02-28T08:09:23.079Z,5.80
2019-02-28T08:11:55.477Z,6.20
2019-02-28T08:14:22.398Z,7.07
2019-02-28T08:16:51.359Z,6.30
2019-02-28T08:19:20.122Z,6.23
2019-02-28T08:21:50.517Z,6.80
2019-02-28T08:24:19.588Z,6.57
2019-02-28T08:26:50.717Z,6.90
2019-02-28T08:29:18.549Z,6.37
2019-02-28T08:31:47.337Z,6.70
2019-02-28T08:34:16.120Z,6.37
2019-02-28T08:36:46.905Z,6.57
2019-02-28T08:39:16.479Z,6.53
2019-02-28T08:41:45.431Z,6.23
2019-02-28T08:44:14.223Z,6.57
2019-02-28T08:46:43.474Z,5.97
2019-02-28T08:49:13.597Z,6.13
2019-02-28T08:51:43.224Z,5.70
2019-02-28T08:54:12.167Z,6.50
2019-02-28T08:56:40.933Z,5.57
2019-02-28T08:59:11.969Z,4.87
2019-02-28T09:01:43.433Z,5.27
2019-02-28T09:04:10.662Z,5.20
2019-02-28T09:06:41.022Z,5.00
2019-02-28T09:09:11.395Z,5.00
2019-02-28T09:11:40.151Z,5.40
2019-02-28T09:14:10.378Z,5.00
2019-02-28T09:16:39.718Z,5.23
2019-02-28T09:19:09.220Z,5.33
2019-02-28T09:21:37.986Z,5.70
2019-02-28T09:24:09.417Z,6.30
2019-02-28T09:26:37.157Z,5.83
2019-02-28T09:29:05.889Z,5.53
2019-02-28T09:31:38.637Z,9.47
2019-02-28T09:34:05.059Z,7.47
2019-02-28T09:36:33.731Z,6.17
2019-02-28T09:39:02.463Z,6.07
2019-02-28T09:41:31.159Z,5.10
2019-02-28T09:44:00.361Z,5.87
2019-02-28T09:46:29.283Z,6.63
2019-02-28T09:48:59.895Z,4.90
2019-02-28T09:51:31.537Z,5.93
2019-02-28T09:53:58.894Z,6.00
2019-02-28T09:56:27.860Z,5.70
2019-02-28T09:58:56.515Z,6.30
2019-02-28T10:01:25.331Z,6.83
2019-02-28T10:03:55.349Z,6.17
2019-02-28T10:06:24.361Z,6.97
2019-02-28T10:08:53.087Z,7.43
2019-02-28T10:11:21.960Z,6.93
2019-02-28T10:13:53.179Z,7.83
2019-02-28T10:16:21.304Z,7.57
2019-02-28T10:18:50.048Z,7.33
2019-02-28T10:21:18.692Z,7.87
2019-02-28T10:23:47.448Z,7.27
2019-02-28T10:26:17.232Z,6.60
2019-02-28T10:28:46.993Z,7.27
2019-02-28T10:31:15.773Z,7.33
2019-02-28T10:33:44.502Z,7.30
2019-02-28T10:36:13.813Z,8.40
2019-02-28T10:38:42.770Z,7.07
2019-02-28T10:41:11.509Z,6.90
2019-02-28T10:43:40.277Z,6.80
2019-02-28T10:46:09.035Z,7.17
2019-02-28T10:48:41.842Z,5.87
2019-02-28T10:51:13.967Z,6.43
2019-02-28T10:53:39.369Z,5.83
2019-02-28T10:56:09.029Z,6.20
2019-02-28T10:58:37.909Z,6.27
2019-02-28T11:01:08.946Z,6.50
2019-02-28T11:03:38.062Z,6.60
2019-02-28T11:06:06.946Z,6.60
2019-02-28T11:08:35.605Z,6.37
2019-02-28T11:11:07.232Z,6.60
2019-02-28T11:13:35.048Z,6.80
2019-02-28T11:16:03.781Z,7.00
2019-02-28T11:18:32.626Z,7.47
2019-02-28T11:21:01.304Z,8.67
2019-02-28T11:23:30.002Z,8.73
2019-02-28T11:26:00.024Z,9.90
2019-02-28T11:28:29.306Z,9.97
2019-02-28T11:30:58.360Z,9.73
2019-02-28T11:33:27.088Z,10.00
2019-02-28T11:35:59.001Z,9.53
2019-02-28T11:38:26.440Z,10.20
2019-02-28T11:40:57.536Z,10.43
2019-02-28T11:43:26.812Z,9.93
2019-02-28T11:45:56.558Z,10.00
2019-02-28T11:48:26.264Z,9.07
2019-02-28T11:50:55.278Z,10.70
2019-02-28T11:53:23.976Z,10.03
2019-02-28T11:55:53.639Z,10.40
2019-02-28T11:58:23.272Z,10.33
2019-02-28T12:00:51.970Z,10.50
2019-02-28T12:03:20.641Z,9.60
2019-02-28T12:05:50.543Z,10.60
2019-02-28T12:08:19.894Z,9.90
2019-02-28T12:10:48.746Z,10.60
2019-02-28T12:13:19.592Z,11.10
2019-02-28T12:15:47.762Z,10.60
2019-02-28T12:18:16.430Z,10.67
2019-02-28T12:20:45.064Z,10.87
2019-02-28T12:23:13.796Z,12.23
2019-02-28T12:25:42.749Z,12.17
2019-02-28T12:28:12.463Z,12.60
2019-02-28T12:30:41.344Z,11.83
2019-02-28T12:33:10.181Z,11.67
2019-02-28T12:35:40.619Z,11.47
2019-02-28T12:38:09.632Z,12.23
2019-02-28T12:40:38.518Z,12.77
2019-02-28T12:43:08.804Z,12.10
2019-02-28T12:45:38.015Z,11.23
2019-02-28T12:48:06.728Z,11.17
2019-02-28T12:50:35.398Z,12.40
2019-02-28T12:53:04.377Z,10.93
2019-02-28T12:55:35.612Z,12.00
2019-02-28T12:58:03.600Z,11.13
2019-02-28T13:00:33.454Z,10.93
2019-02-28T13:03:02.164Z,11.73
2019-02-28T13:05:31.072Z,11.17
2019-02-28T13:07:59.718Z,11.13
2019-02-28T13:10:31.030Z,10.60
2019-02-28T13:13:06.136Z,10.07
2019-02-28T13:15:29.711Z,10.17
2019-02-28T13:17:58.470Z,10.23
2019-02-28T13:20:32.152Z,10.73
2019-02-28T13:22:59.467Z,10.20
2019-02-28T13:25:28.203Z,10.97
2019-02-28T13:27:57.076Z,9.50
2019-02-28T13:30:25.876Z,11.27
2019-02-28T13:32:54.783Z,10.40
2019-02-28T13:35:25.212Z,10.37
2019-02-28T13:37:54.041Z,10.63
2019-02-28T13:40:22.918Z,10.57
2019-02-28T13:42:51.795Z,10.00
2019-02-28T13:45:23.281Z,8.73
2019-02-28T13:47:51.139Z,8.50
2019-02-28T13:50:22.106Z,8.63
2019-02-28T13:52:52.678Z,8.00
2019-02-28T13:55:21.944Z,7.57
2019-02-28T13:57:50.906Z,8.30
2019-02-28T14:00:21.876Z,10.90
2019-02-28T14:02:51.279Z,7.50
2019-02-28T14:05:20.064Z,7.83
2019-02-28T14:07:48.893Z,7.33
2019-02-28T14:10:17.698Z,7.50
2019-02-28T14:12:47.204Z,7.37
2019-02-28T14:15:16.951Z,6.93
2019-02-28T14:17:45.972Z,7.37
2019-02-28T14:20:14.761Z,8.03
2019-02-28T14:22:45.813Z,7.40
2019-02-28T14:25:13.871Z,6.43
2019-02-28T14:27:42.704Z,7.70
2019-02-28T14:30:12.295Z,6.93
2019-02-28T14:32:42.377Z,6.50
2019-02-28T14:35:11.521Z,6.63
2019-02-28T14:37:40.227Z,6.30
2019-02-28T14:40:10.551Z,6.60
2019-02-28T14:42:40.742Z,6.90
2019-02-28T14:45:10.652Z,5.97
2019-02-28T14:47:39.280Z,6.50
2019-02-28T14:50:08.591Z,6.17
2019-02-28T14:52:39.328Z,6.37
2019-02-28T14:55:08.988Z,5.90
2019-02-28T14:57:37.827Z,6.50
2019-02-28T15:00:08.059Z,5.97
2019-02-28T15:02:36.774Z,6.37
2019-02-28T15:05:05.932Z,5.60
2019-02-28T15:07:35.242Z,5.73
2019-02-28T15:10:06.038Z,5.60
2019-02-28T15:12:34.800Z,5.03
2019-02-28T15:15:03.483Z,4.90
2019-02-28T15:17:32.162Z,4.90
2019-02-28T15:20:00.817Z,4.90
2019-02-28T15:22:29.532Z,4.90
2019-02-28T15:24:58.186Z,5.60
2019-02-28T15:27:27.007Z,5.60
2019-02-28T15:29:58.896Z,5.27
2019-02-28T15:32:26.119Z,5.23
2019-02-28T15:34:54.922Z,5.50
2019-02-28T15:37:23.783Z,5.63
2019-02-28T15:39:52.578Z,5.60
2019-02-28T15:42:21.288Z,5.40
2019-02-28T15:44:50.133Z,5.03
2019-02-28T15:47:19.493Z,5.27
2019-02-28T15:49:49.320Z,4.77
2019-02-28T15:52:18.095Z,4.93
2019-02-28T15:54:46.689Z,5.43
2019-02-28T15:57:15.484Z,5.17
2019-02-28T15:59:46.684Z,5.13
2019-02-28T16:02:14.718Z,5.03
2019-02-28T16:04:43.550Z,5.50
2019-02-28T16:07:12.528Z,4.83
2019-02-28T16:09:41.326Z,4.70
2019-02-28T16:12:12.559Z,5.17
2019-02-28T16:14:40.568Z,5.20
2019-02-28T16:17:09.570Z,5.20
2019-02-28T16:19:38.310Z,5.17
2019-02-28T16:22:06.974Z,5.37
2019-02-28T16:24:36.768Z,5.30
2019-02-28T16:27:06.220Z,5.17
2019-02-28T16:29:34.824Z,5.70
2019-02-28T16:32:03.538Z,5.33
2019-02-28T16:34:32.270Z,5.77
2019-02-28T16:37:01.962Z,5.70
2019-02-28T16:39:30.668Z,6.20
2019-02-28T16:41:59.486Z,6.10
2019-02-28T16:44:30.773Z,6.07
2019-02-28T16:46:58.698Z,6.43
2019-02-28T16:49:27.462Z,6.57
2019-02-28T16:51:56.247Z,6.20
2019-02-28T16:54:27.158Z,6.43
2019-02-28T16:56:56.330Z,6.80
2019-02-28T16:59:25.089Z,5.63
2019-02-28T17:01:54.959Z,6.57
2019-02-28T17:04:24.266Z,6.93
2019-02-28T17:06:52.900Z,6.17
2019-02-28T17:09:26.554Z,6.77
2019-02-28T17:12:05.834Z,6.50
2019-02-28T17:14:34.556Z,6.27
2019-02-28T17:17:28.971Z,6.50
2019-02-28T17:19:58.027Z,6.80
2019-02-28T17:22:27.866Z,6.73
2019-02-28T17:24:56.768Z,6.50
2019-02-28T17:27:33.457Z,6.17
2019-02-28T17:30:36.981Z,5.90
2019-02-28T17:33:08.973Z,5.40
2019-02-28T17:35:36.821Z,5.70
2019-02-28T17:38:05.414Z,5.30
2019-02-28T17:40:34.149Z,5.67
2019-02-28T17:43:02.841Z,5.60
2019-02-28T17:45:32.964Z,6.40
2019-02-28T17:48:26.831Z,6.13
2019-02-28T17:50:57.489Z,5.20
2019-02-28T17:53:51.218Z,5.23
2019-02-28T17:56:45.122Z,5.67
2019-02-28T17:59:27.250Z,5.60
2019-02-28T18:02:24.274Z,5.90
2019-02-28T18:05:30.107Z,5.43
2019-02-28T18:07:57.791Z,5.20
2019-02-28T18:10:48.199Z,4.70
2019-02-28T18:13:32.691Z,4.67
2019-02-28T18:16:08.091Z,4.80
2019-02-28T18:18:57.267Z,5.10
2019-02-28T18:21:43.551Z,4.73
2019-02-28T18:24:38.022Z,6.00
2019-02-28T18:27:46.910Z,6.93
2019-02-28T18:30:33.629Z,4.60
2019-02-28T18:33:03.212Z,5.07
2019-02-28T18:35:32.643Z,5.00
2019-02-28T18:38:03.203Z,4.70
2019-02-28T18:40:32.291Z,4.67
2019-02-28T18:43:00.937Z,5.00
2019-02-28T18:45:29.702Z,5.30
2019-02-28T18:47:58.405Z,4.57
2019-02-28T18:50:27.179Z,4.43
2019-02-28T18:52:55.943Z,4.90
2019-02-28T18:55:24.801Z,5.13
2019-02-28T18:57:53.492Z,4.30
2019-02-28T19:00:22.598Z,4.53
2019-02-28T19:02:51.226Z,4.43
2019-02-28T19:05:20.208Z,4.53
2019-02-28T19:07:49.063Z,4.53
2019-02-28T19:10:18.801Z,4.73
2019-02-28T19:12:47.687Z,4.70
2019-02-28T19:15:16.357Z,4.13
2019-02-28T19:17:44.963Z,4.20
2019-02-28T19:20:13.742Z,4.50
2019-02-28T19:22:42.397Z,4.57
2019-02-28T19:25:11.027Z,4.37
2019-02-28T19:27:39.749Z,3.93
2019-02-28T19:30:09.539Z,3.97
2019-02-28T19:32:38.567Z,4.10
2019-02-28T19:35:07.340Z,4.43
2019-02-28T19:37:36.095Z,3.67
2019-02-28T19:40:05.372Z,3.93
2019-02-28T19:42:34.202Z,4.47
2019-02-28T19:45:02.967Z,3.63
2019-02-28T19:47:31.735Z,3.80
2019-02-28T19:50:00.421Z,4.00
2019-02-28T19:52:29.203Z,3.77
2019-02-28T19:54:58.013Z,3.87
2019-02-28T19:57:26.763Z,3.60
2019-02-28T19:59:55.555Z,4.03
2019-02-28T20:02:24.263Z,5.07
2019-02-28T20:04:53.070Z,4.33
2019-02-28T20:07:21.798Z,5.83
2019-02-28T20:09:50.524Z,4.60
2019-02-28T20:12:19.229Z,4.43
2019-02-28T20:14:48.054Z,5.47
2019-02-28T20:17:16.748Z,3.87
2019-02-28T20:19:45.402Z,3.77
2019-02-28T20:22:14.223Z,4.10
2019-02-28T20:24:42.948Z,4.47
2019-02-28T20:27:12.322Z,3.87
2019-02-28T20:29:41.205Z,4.20
2019-02-28T20:32:09.868Z,3.80
2019-02-28T20:34:38.574Z,3.60
2019-02-28T20:37:07.580Z,4.50
2019-02-28T20:39:36.279Z,4.00
2019-02-28T20:42:05.135Z,4.03
2019-02-28T20:44:33.914Z,3.43
2019-02-28T20:47:02.567Z,3.90
2019-02-28T20:49:31.309Z,4.30
2019-02-28T20:51:59.970Z,4.47
2019-02-28T20:54:28.672Z,3.93
2019-02-28T20:56:57.385Z,4.33
2019-02-28T20:59:26.221Z,4.17
2019-02-28T21:01:54.923Z,3.50
2019-02-28T21:04:23.630Z,3.37
2019-02-28T21:06:52.358Z,3.00
2019-02-28T21:09:21.106Z,2.80
2019-02-28T21:11:49.720Z,2.60
2019-02-28T21:14:18.628Z,2.37
2019-02-28T21:16:47.660Z,3.00
2019-02-28T21:19:16.305Z,2.53
2019-02-28T21:21:45.075Z,2.50
2019-02-28T21:24:13.716Z,2.60
2019-02-28T21:26:42.348Z,2.60
2019-02-28T21:29:11.146Z,2.60
2019-02-28T21:31:39.919Z,2.30
2019-02-28T21:34:10.474Z,2.53
2019-02-28T21:36:39.390Z,2.10
2019-02-28T21:39:09.215Z,2.40
2019-02-28T21:41:37.966Z,2.33
2019-02-28T21:44:06.722Z,2.40
2019-02-28T21:46:35.426Z,2.30
2019-02-28T21:49:04.678Z,2.13
2019-02-28T21:51:33.328Z,2.00
2019-02-28T21:54:02.046Z,2.00
2019-02-28T21:56:30.718Z,2.20
2019-02-28T21:58:59.362Z,2.30
2019-02-28T22:01:28.106Z,1.90
2019-02-28T22:03:56.826Z,1.87
2019-02-28T22:06:25.780Z,1.93
2019-02-28T22:08:54.491Z,2.07
2019-02-28T22:11:23.316Z,1.80
2019-02-28T22:13:52.138Z,2.00
2019-02-28T22:16:20.772Z,2.00
2019-02-28T22:18:49.460Z,1.90
2019-02-28T22:21:18.192Z,1.80
2019-02-28T22:23:46.913Z,2.17
2019-02-28T22:26:15.764Z,1.80
2019-02-28T22:28:44.456Z,1.80
2019-02-28T22:31:36.416Z,1.60
2019-02-28T22:34:36.430Z,2.00
2019-02-28T22:37:05.562Z,2.27
2019-02-28T22:39:34.278Z,2.20
2019-02-28T22:42:02.919Z,1.90
2019-02-28T22:44:31.815Z,1.87
2019-02-28T22:47:00.500Z,1.47
2019-02-28T22:49:29.185Z,2.20
2019-02-28T22:51:57.952Z,1.50
2019-02-28T22:54:26.834Z,1.73
2019-02-28T22:56:55.592Z,2.10
2019-02-28T22:59:24.404Z,2.00
2019-02-28T23:01:53.808Z,1.73
2019-02-28T23:04:22.567Z,1.47
2019-02-28T23:06:51.300Z,2.00
2019-02-28T23:09:20.050Z,2.00
2019-02-28T23:11:48.670Z,1.83
2019-02-28T23:14:17.540Z,2.10
2019-02-28T23:16:46.152Z,1.83
2019-02-28T23:19:15.443Z,1.80
2019-02-28T23:21:44.254Z,1.70
2019-02-28T23:24:13.082Z,1.90
2019-02-28T23:26:59.418Z,1.90
2019-02-28T23:29:28.180Z,1.93
2019-02-28T23:32:16.027Z,2.10
2019-02-28T23:34:46.294Z,1.63
2019-02-28T23:37:15.220Z,2.00
2019-02-28T23:39:43.927Z,1.80
2019-02-28T23:42:12.590Z,2.10
2019-02-28T23:44:41.278Z,1.70
2019-02-28T23:47:10.020Z,1.67
2019-02-28T23:49:38.795Z,1.60
2019-02-28T23:52:07.534Z,2.20
2019-02-28T23:54:36.555Z,1.83
2019-02-28T23:57:05.312Z,2.00
2019-02-28T23:59:34.034Z,1.93
